Friday, January 19, 2018, 10:34 PM EST
Back to Local

KBLM, Belmar-farmingdale

Location: Farmingdale, NJ, United States Lat: 40.183
Local Time: 10:34 PM EST ( 3:34 GMT) Lon: -74.133
Time Zone: US/Eastern Elev: 157 ft

Show me the last for .
Show Decoded

2018-01-19 21:56 METAR KBLM 200256Z AUTO 22006KT 10SM CLR 03/M08 A3001 RMK AO2 SLP166 T00281083
                 55002 =
2018-01-19 20:56 METAR KBLM 200156Z AUTO 21006KT 10SM CLR 02/M08 A3000 RMK AO2 SLP165 T00221078
                 FZRANO =
2018-01-19 19:56 METAR KBLM 200056Z AUTO 21005KT 10SM CLR 02/M08 A3001 RMK AO2 SLP169 T00221078
                 FZRANO =
2018-01-19 18:56 METAR KBLM 192356Z AUTO 22004KT 10SM CLR 02/M08 A3001 RMK AO2 SLP169 6////
                 T00221078 10056 20022 FZRANO =
2018-01-19 17:56 METAR KBLM 192256Z AUTO 22004KT 10SM CLR 03/M08 RMK AO2 SLPNO T00331083 $ =
2018-01-19 16:56 METAR KBLM 192156Z AUTO 24008KT 10SM CLR 04/M08 RMK AO2 SLPNO T00441083 $ =
2018-01-19 15:56 METAR KBLM 192056Z AUTO 26011G17KT 10SM CLR 05/M08 A3000 RMK AO2 SLP163 6////
                 T00501083 56010 =
2018-01-19 14:56 METAR KBLM 191956Z AUTO 26011G19KT 10SM CLR 04/M09 A3000 RMK AO2 SLP164
                 T00441089 =
2018-01-19 13:56 METAR KBLM 191856Z AUTO 27014G18KT 10SM CLR 04/M09 A3001 RMK AO2 SLP166
                 T00441089 =
2018-01-19 12:56 METAR KBLM 191756Z AUTO 24009G16KT 10SM CLR 04/M09 A3003 RMK AO2 SLP174 6////
                 T00391089 10039 21067 =
2018-01-19 11:56 METAR KBLM 191656Z AUTO 28013G16KT 10SM CLR 03/M10 A3005 RMK AO2 SLP183
                 T00331100 =
2018-01-19 10:56 METAR KBLM 191556Z AUTO 25011KT 10SM CLR 02/M09 RMK AO2 SLPNO T00171094 FZRANO $
                 =
2018-01-19 09:56 METAR KBLM 191456Z AUTO 25004KT 10SM CLR 00/M07 A3011 RMK AO2 SLP201 6////
                 T00001067 53004 FZRANO =
2018-01-19 08:56 METAR KBLM 191356Z AUTO 23005KT 10SM CLR M04/M09 A3011 RMK AO2 SLP201 T10441089
                 FZRANO =
2018-01-19 07:56 METAR KBLM 191256Z AUTO 23006KT 10SM CLR M06/M10 A3010 RMK AO2 SLP197 T10561100
                 FZRANO =
2018-01-19 06:56 METAR KBLM 191156Z AUTO 22005KT 10SM CLR M07/M10 A3010 RMK AO2 SLP198 6////
                 7//// T10671100 11061 21083 51008 FZRANO =
2018-01-19 05:56 METAR KBLM 191056Z AUTO 00000KT 10SM CLR M08/M11 A3010 RMK AO2 SLP197 T10781111
                 FZRANO =
2018-01-19 04:56 METAR KBLM 190956Z AUTO 24004KT 10SM CLR M07/M11 A3009 RMK AO2 SLP194 T10721111
                 FZRANO =
2018-01-19 03:56 METAR KBLM 190856Z AUTO 24004KT 10SM CLR M07/M11 A3007 RMK AO2 SLP189 T10721111
                 53001 FZRANO =
2018-01-19 02:56 METAR KBLM 190756Z AUTO 24004KT 10SM CLR M07/M11 A3006 RMK AO2 SLP186 T10671111
                 FZRANO =
2018-01-19 01:56 METAR KBLM 190656Z AUTO 23004KT 10SM CLR M06/M11 A3007 RMK AO2 SLP187 T10611111
                 FZRANO =
2018-01-19 00:56 METAR KBLM 190556Z AUTO 23005KT 10SM CLR M06/M11 A3007 RMK AO2 SLP188 6////
                 T10611106 11033 21067 FZRANO =
2018-01-18 23:56 METAR KBLM 190456Z AUTO 10SM CLR M07/M12 RMK AO2 SLPNO T10671117 400111094
                 FZRANO $ =
2018-01-18 22:56 METAR KBLM 190356Z AUTO 26003KT 10SM CLR M06/M11 A3010 RMK AO2 SLP198 T10561111
                 FZRANO =

Support USWX by starting your Amazon purchase here.